Terminal Aerodrome Forecast
Issued by NWS

Home | Current Version | Previous Version | Text Only | Print | Product List | Glossary On
Versions: 1 2 3 4 5 6 7 8 9 10 11 12 13 14 15 16 17 18 19 20 21 22 23 24 25 26 27 28 29 30 31 32
833
FTUS45 KTFX 172323
TAFBZN
TAF
KBZN 172323Z 1800/1906 VRB03KT P6SM SCT008 BKN025
      TEMPO 1800/1803 3SM -SN BR SCT003 BKN008
     FM180300 VRB03KT P6SM VCSH SCT025 OVC050 PROB30 1809/1815 3SM
      -SN BR SCT008 BKN025
     FM182000 VRB06KT P6SM BKN040=

USA.gov is the U.S. government's official web portal to all federal, state and local government web resources and services.